Logo AVAMET
Benvolgut visitant, si us plau, ingressa Recuperar contrasenya

Bunyol Camp de Futbol

Dades diàries. Acumulats / Últims 30 dies disponibles

Data Temperatura (°C) Humitat rel. (%) Pressió rel. (hPa) Vent (km/h) Precipitació
Mínima Mitjana Màxima Amplitud
tèrmica
Mínima Mitjana Màxima Mínima Mitjana Màxima Predom. Mitjana Ràfega
màxima
Total
(mm)
Índex-n
Mínima Mitjana Màxima Mínima Mitjana Màxima n
0 a 1
P0 max
mm 5'
Dades mensuals acumulades fins l'últim dia disponible
05/2019 6,3 11,1 15,1 16,0 17,9 22,0 27,4 21,1 29 71 100 971 1.015 1.023   7,3 60,3 6,0
Dades anuals acumulades fins l'últim dia disponible
2019 1,1 7,6 15,1 12,3 10,5 18,4 27,7 26,6 7 63 100 969 1.020 1.035   9,5 87,0 123,0
Últims 30 dies disponibles
21-05-2019 13,2     15,9     22,5 9,3 57 81 97 1.015 1.017 1.019 SSO 6,2 35,5 2,0
20-05-2019 10,4     16,5     22,7 12,3 37 60 89 1.013 1.014 1.016 SSE 6,9 33,5 0,0
19-05-2019 10,1     15,5     21,5 11,4 32 59 90 1.011 1.012 1.014 SO 7,3 27,4 0,0
18-05-2019 11,6     14,2     18,1 6,5 50 69 89 1.010 1.011 1.013 S 7,4 27,0 0,0
17-05-2019 12,7     17,6     20,1 7,4 41 46 58 1.005 1.009 1.012 O 15,2 60,3 0,0
15-05-2019 14,5     18,4     25,6 11,1 46 70 100 1.013 1.014 1.017 SE 8,2 35,2 0,0
14-05-2019 10,2     20,7     25,6 15,4 37 54 96 1.015 1.018 1.023 ESE 8,4 47,2 0,0
13-05-2019 12,5     19,5     23,5 11,0 29 54 88 1.020 1.021 1.023 ENE 8,0 59,8 0,0
08-05-2019 15,1     17,2     21,2 6,1 63 80 100 1.014 1.015 1.016 SO 10,0 38,1 0,0
07-05-2019 11,2     18,0     27,4 16,2 36 76 97 1.016 1.018 1.020 S 5,3 42,7 0,0
06-05-2019 8,4     14,2     20,6 12,2 50 77 94 1.018 1.019 1.021 SSE 6,0 28,7 0,0
05-05-2019 10,6     15,0     20,0 9,4 43 62 89 1.014 1.016 1.019 SSE 6,4 30,9 0,0
04-05-2019 6,3     14,0     23,8 17,5 35 69 100 1.012 1.014 1.015 S 8,4 39,2 0,0
03-05-2019 8,7     12,0     17,9 9,2 60 88 100 1.012 1.014 1.017 S 5,5 24,8 2,0
02-05-2019 11,7     14,9     19,5 7,8 59 89 100 1.015 1.017 1.018 E 3,2 23,7 0,0
01-05-2019 10,4     12,5     21,6 11,2 69 96 100 971 1.016 1.019 SSO 4,7 22,0 2,0
30-04-2019 10,1     15,0     20,9 10,8 70 88 100 1.017 1.018 1.020 SE 6,5 26,6 0,0
29-04-2019 9,2     13,9     20,0 10,8 68 87 100 1.018 1.020 1.022 SSE 6,0 26,6 0,0
28-04-2019 10,8     15,7     22,7 11,9 47 65 90 1.021 1.023 1.026 S 6,3 30,5 0,0
27-04-2019 9,5     16,1     22,3 12,8 38 53 69 1.024 1.026 1.027 S 8,1 36,6 0,0
26-04-2019 8,7     14,7     21,7 13,0 36 61 87 1.019 1.022 1.026 SSO 11,5 56,4 0,0
25-04-2019 11,4     14,3     18,2 6,8 46 71 95 1.010 1.013 1.019 SO 10,9 64,4 0,0
24-04-2019 7,6     13,5     20,5 12,9 47 64 83 1.005 1.009 1.012 SO 13,0 56,4 0,0
23-04-2019 10,0     13,5     17,8 7,8 54 78 100 1.000 1.002 1.005 SO 12,5 47,2 1,0
22-04-2019 9,9     13,2     16,4 6,5 68 87 100 1.002 1.004 1.009 SSO 5,0 19,8 1,0
21-04-2019 9,6     11,5     12,7 3,1 70 84 100 1.009 1.012 1.017 ENE 5,1 24,8 22,8
20-04-2019 11,0     12,7     14,2 3,2 62 78 100 1.016 1.018 1.020 NE 13,8 42,4 5,3
19-04-2019 10,9     11,6     12,8 1,9 100 100 100 972 1.017 1.020 ESE 10,7 45,7 47,9 1,00
18-04-2019 9,9     11,5     12,6 2,7 88 99 100 969 1.015 1.019 SE 8,1 34,6 39,0 0,14 3,40
17-04-2019 10,6     12,8     17,2 6,6 71 94 100 1.017 1.019 1.022 NE 7,3 22,2 0,0
Últims 13 mesos disponibles
04/2019 6,4 9,4 11,7 13,3 12,2 18,6 27,7 21,3 33 72 100 1.002 1.014 1.026 SO 9,5 64,4 117,0
03/2019 4,3 8,0 12,8 13,2 10,5 19,6 26,0 21,7 27 55 99 1.012 1.023 1.030 S 8,1 67,9
02/2019 2,5 6,0 10,7 11,1 10,8 17,6 26,1 23,6 25 62 92 997 1.025 1.033 SSO 9,1 87,0
01/2019 1,1 5,2 10,0 9,5 10,8 15,9 21,9 20,8 35 58 81 1.004 1.019 1.030 OSO 12,4 85,8
12/2018 4,0 7,3 11,5 11,6 12,5 17,8 25,1 21,1 36 72 95 1.009 1.025 1.030 OSO 11,8 70,5 3,0
11/2018 5,7 9,7 14,1 12,7 12,0 16,8 23,1 17,4 48 81 100 1.004 1.016 1.025 OSO 9,0 69,7 151,8
10/2018 4,6 12,9 17,1 16,7 10,9 21,6 30,9 26,3 43 79 100 1.002 1.016 1.024 7,6 67,5 72,7
09/2018 14,6 18,5 21,4 22,3 21,0 27,6 32,8 18,2 54 86 99 1.015 1.021 1.030 5,5 66,8 31,7
08/2018 17,9 20,9 23,6 25,2 25,4 31,4 36,1 18,2 46 75 92 1.016 1.019 1.024 6,5 51,8 20,7
07/2018 17,8 20,0 22,0 25,6 25,9 31,7 37,4 19,6 24 66 90 1.013 1.018 1.022 7,5 47,4 0,0
06/2018 13,1 16,7 20,3 21,7 20,1 27,5 32,4 19,3 43 67 93 1.013 1.017 1.023 7,5 47,2 44,5
05/2018 9,2 13,1 16,3 17,9 18,9 23,6 27,2 18,0 34 70 95 1.010 1.016 1.019 7,3 49,2 46,4
04/2018 6,4 10,4 14,8 14,5 9,9 19,4 29,3 22,9 49 69 99 997 1.015 1.026 9,7 65,1 18,0
Tots els anys disponibles
2017 -1,4 9,5 24,4 12,3 0,6 15,6 29,4 30,8 19 60 97 501 958 1.015 50,0
2016 0,9 8,6 27,3 13,1 7,7 17,5 38,1 37,2 20 58 93 981 1.009 1.027 99,0
2015 5,7 15,4 26,9 20,4 7,1 25,4 41,2 35,5 2 63 98 -49 957 1.066 71,0
2014 3,2 13,6 25,4 18,6 8,3 23,6 38,7 35,5 19 58 94 976 1.007 1.019 105,0
Temperatura (°C)
Humitat relativa (%)
Velocitat del vent i ràfega màxima (km/h)
Direcció del vent (°)
Pressió (hPa)
Precipitació (mm)
Nota sobre les dades: s'avisa a l'usuari de la provisionalitat i no oficialitat d'aquestes dades
Logo AVAMET blanc
Web allotjada a Sollutia
Llicència de Creative CommonsLa web d'AVAMET i els seus continguts estan subjectes a una llicència de
Reconeixement - No Comercial - Compartir igual
Properes estacions: Altea - Club Nàutic d'Altea (Soci), Ontinyent - El Pilar (Soci), Ares del Maestrat (Ajuntament Soci), Catadau - L'Altet (Inforatge)     - - - - -      Últimes estacions: Jacarilla - centro (MeteOrihuela), Elx - Maitino/Vallverda/Velarde/Matola/Ferriol (Soci TiempoElche.com), Orihuela - Playa Flamenca (MeteOrihuela), Puçol - Ciutat Jardí (Soci), Alzira - La Casella (Soci) - - -